sensor_id;sensor_type;location;lat;lon;timestamp;P1;durP1;ratioP1;P2;durP2;ratioP2
75626;SDS011;67372;49.404;11.034;2023-02-15T00:00:26;18.70;;;7.40;;
75626;SDS011;67372;49.404;11.034;2023-02-15T00:02:52;18.10;;;6.53;;
75626;SDS011;67372;49.404;11.034;2023-02-15T00:05:19;18.70;;;6.47;;
75626;SDS011;67372;49.404;11.034;2023-02-15T00:07:45;14.27;;;5.85;;
75626;SDS011;67372;49.404;11.034;2023-02-15T00:10:11;15.50;;;6.25;;
75626;SDS011;67372;49.404;11.034;2023-02-15T00:12:38;18.98;;;6.57;;
75626;SDS011;67372;49.404;11.034;2023-02-15T00:15:04;15.98;;;5.95;;
75626;SDS011;67372;49.404;11.034;2023-02-15T00:17:30;16.77;;;6.38;;
75626;SDS011;67372;49.404;11.034;2023-02-15T00:19:57;13.48;;;5.68;;
75626;SDS011;67372;49.404;11.034;2023-02-15T00:22:23;14.48;;;5.40;;
75626;SDS011;67372;49.404;11.034;2023-02-15T00:24:49;14.43;;;5.95;;
75626;SDS011;67372;49.404;11.034;2023-02-15T00:27:16;12.95;;;5.32;;
75626;SDS011;67372;49.404;11.034;2023-02-15T00:29:42;15.25;;;5.32;;
75626;SDS011;67372;49.404;11.034;2023-02-15T00:32:08;13.50;;;5.15;;
75626;SDS011;67372;49.404;11.034;2023-02-15T00:34:35;14.65;;;5.18;;
75626;SDS011;67372;49.404;11.034;2023-02-15T00:37:01;14.10;;;5.10;;
75626;SDS011;67372;49.404;11.034;2023-02-15T00:39:28;14.43;;;5.10;;
75626;SDS011;67372;49.404;11.034;2023-02-15T00:41:54;14.82;;;5.55;;
75626;SDS011;67372;49.404;11.034;2023-02-15T00:44:20;16.73;;;5.93;;
75626;SDS011;67372;49.404;11.034;2023-02-15T00:46:47;15.43;;;5.53;;
75626;SDS011;67372;49.404;11.034;2023-02-15T00:49:13;17.40;;;5.43;;
75626;SDS011;67372;49.404;11.034;2023-02-15T00:51:39;14.80;;;5.68;;
75626;SDS011;67372;49.404;11.034;2023-02-15T00:54:06;15.40;;;5.25;;
75626;SDS011;67372;49.404;11.034;2023-02-15T00:56:33;15.38;;;6.15;;
75626;SDS011;67372;49.404;11.034;2023-02-15T00:58:59;17.58;;;6.07;;
75626;SDS011;67372;49.404;11.034;2023-02-15T01:01:25;17.42;;;5.88;;
75626;SDS011;67372;49.404;11.034;2023-02-15T01:03:52;16.25;;;5.88;;
75626;SDS011;67372;49.404;11.034;2023-02-15T01:06:18;15.40;;;5.18;;
75626;SDS011;67372;49.404;11.034;2023-02-15T01:08:45;15.23;;;5.40;;
75626;SDS011;67372;49.404;11.034;2023-02-15T01:11:13;17.80;;;5.90;;
75626;SDS011;67372;49.404;11.034;2023-02-15T01:13:41;13.85;;;4.97;;
75626;SDS011;67372;49.404;11.034;2023-02-15T01:16:08;19.50;;;6.28;;
75626;SDS011;67372;49.404;11.034;2023-02-15T01:18:34;15.05;;;5.57;;
75626;SDS011;67372;49.404;11.034;2023-02-15T01:21:08;13.90;;;5.18;;
75626;SDS011;67372;49.404;11.034;2023-02-15T01:23:39;12.80;;;4.72;;
75626;SDS011;67372;49.404;11.034;2023-02-15T01:26:06;16.10;;;4.90;;
75626;SDS011;67372;49.404;11.034;2023-02-15T01:28:33;11.27;;;5.40;;
75626;SDS011;67372;49.404;11.034;2023-02-15T01:30:59;15.13;;;5.20;;
75626;SDS011;67372;49.404;11.034;2023-02-15T01:33:34;15.10;;;5.28;;
75626;SDS011;67372;49.404;11.034;2023-02-15T01:36:02;11.95;;;4.25;;
75626;SDS011;67372;49.404;11.034;2023-02-15T01:38:29;16.38;;;5.53;;
75626;SDS011;67372;49.404;11.034;2023-02-15T01:40:55;12.80;;;4.43;;
75626;SDS011;67372;49.404;11.034;2023-02-15T01:43:27;14.82;;;5.40;;
75626;SDS011;67372;49.404;11.034;2023-02-15T01:46:06;12.25;;;4.85;;
75626;SDS011;67372;49.404;11.034;2023-02-15T01:48:34;13.57;;;5.38;;
75626;SDS011;67372;49.404;11.034;2023-02-15T01:51:07;12.65;;;5.10;;
75626;SDS011;67372;49.404;11.034;2023-02-15T01:53:38;13.32;;;4.72;;
75626;SDS011;67372;49.404;11.034;2023-02-15T01:56:11;12.80;;;4.45;;
75626;SDS011;67372;49.404;11.034;2023-02-15T01:58:43;9.23;;;4.55;;
75626;SDS011;67372;49.404;11.034;2023-02-15T02:01:10;10.88;;;4.38;;
75626;SDS011;67372;49.404;11.034;2023-02-15T02:03:47;14.48;;;5.57;;
75626;SDS011;67372;49.404;11.034;2023-02-15T02:06:18;15.38;;;5.25;;
75626;SDS011;67372;49.404;11.034;2023-02-15T02:08:46;12.05;;;4.63;;
75626;SDS011;67372;49.404;11.034;2023-02-15T02:11:14;10.10;;;4.18;;
75626;SDS011;67372;49.404;11.034;2023-02-15T02:13:41;13.10;;;5.10;;
75626;SDS011;67372;49.404;11.034;2023-02-15T02:22:07;15.52;;;5.45;;
75626;SDS011;67372;49.404;11.034;2023-02-15T02:24:45;11.10;;;4.45;;
75626;SDS011;67372;49.404;11.034;2023-02-15T02:33:18;9.90;;;3.83;;
75626;SDS011;67372;49.404;11.034;2023-02-15T02:38:38;11.63;;;4.32;;
75626;SDS011;67372;49.404;11.034;2023-02-15T02:44:13;12.73;;;4.68;;
75626;SDS011;67372;49.404;11.034;2023-02-15T02:49:33;13.15;;;4.32;;
75626;SDS011;67372;49.404;11.034;2023-02-15T02:52:06;13.45;;;4.72;;
75626;SDS011;67372;49.404;11.034;2023-02-15T02:54:53;13.65;;;4.65;;
75626;SDS011;67372;49.404;11.034;2023-02-15T02:57:21;15.20;;;4.57;;
75626;SDS011;67372;49.404;11.034;2023-02-15T02:59:50;12.27;;;4.63;;
75626;SDS011;67372;49.404;11.034;2023-02-15T03:02:20;13.80;;;4.68;;
75626;SDS011;67372;49.404;11.034;2023-02-15T03:04:55;13.70;;;4.43;;
75626;SDS011;67372;49.404;11.034;2023-02-15T03:07:27;10.77;;;4.25;;
75626;SDS011;67372;49.404;11.034;2023-02-15T03:09:56;9.65;;;3.75;;
75626;SDS011;67372;49.404;11.034;2023-02-15T03:12:31;12.73;;;4.28;;
75626;SDS011;67372;49.404;11.034;2023-02-15T03:17:38;12.18;;;4.50;;
75626;SDS011;67372;49.404;11.034;2023-02-15T03:20:16;10.90;;;3.65;;
75626;SDS011;67372;49.404;11.034;2023-02-15T03:22:48;9.40;;;3.65;;
75626;SDS011;67372;49.404;11.034;2023-02-15T03:25:23;12.00;;;4.15;;
75626;SDS011;67372;49.404;11.034;2023-02-15T03:28:05;11.80;;;4.25;;
75626;SDS011;67372;49.404;11.034;2023-02-15T03:30:35;9.48;;;3.90;;
75626;SDS011;67372;49.404;11.034;2023-02-15T03:33:05;14.13;;;5.03;;
75626;SDS011;67372;49.404;11.034;2023-02-15T03:35:36;10.52;;;4.10;;
75626;SDS011;67372;49.404;11.034;2023-02-15T03:38:09;12.43;;;5.00;;
75626;SDS011;67372;49.404;11.034;2023-02-15T03:40:44;10.18;;;4.15;;
75626;SDS011;67372;49.404;11.034;2023-02-15T03:43:21;12.05;;;4.78;;
75626;SDS011;67372;49.404;11.034;2023-02-15T03:45:55;10.30;;;4.10;;
75626;SDS011;67372;49.404;11.034;2023-02-15T03:48:27;13.18;;;4.55;;
75626;SDS011;67372;49.404;11.034;2023-02-15T03:50:58;13.63;;;4.40;;
75626;SDS011;67372;49.404;11.034;2023-02-15T03:53:29;13.60;;;4.20;;
75626;SDS011;67372;49.404;11.034;2023-02-15T03:55:56;11.30;;;4.57;;
75626;SDS011;67372;49.404;11.034;2023-02-15T03:58:22;12.50;;;4.55;;
75626;SDS011;67372;49.404;11.034;2023-02-15T04:00:51;10.75;;;4.03;;
75626;SDS011;67372;49.404;11.034;2023-02-15T04:03:26;10.38;;;3.75;;
75626;SDS011;67372;49.404;11.034;2023-02-15T04:06:00;14.02;;;5.07;;
75626;SDS011;67372;49.404;11.034;2023-02-15T04:08:28;11.52;;;4.05;;
75626;SDS011;67372;49.404;11.034;2023-02-15T04:10:55;12.00;;;4.45;;
75626;SDS011;67372;49.404;11.034;2023-02-15T04:13:22;10.07;;;3.50;;
75626;SDS011;67372;49.404;11.034;2023-02-15T04:15:50;11.07;;;4.72;;
75626;SDS011;67372;49.404;11.034;2023-02-15T04:18:19;16.92;;;4.82;;
75626;SDS011;67372;49.404;11.034;2023-02-15T04:20:46;12.68;;;4.60;;
75626;SDS011;67372;49.404;11.034;2023-02-15T04:23:12;11.63;;;3.72;;
75626;SDS011;67372;49.404;11.034;2023-02-15T04:25:39;12.00;;;4.28;;
75626;SDS011;67372;49.404;11.034;2023-02-15T04:28:05;13.77;;;4.80;;
75626;SDS011;67372;49.404;11.034;2023-02-15T04:30:31;12.88;;;4.78;;
75626;SDS011;67372;49.404;11.034;2023-02-15T04:32:58;11.10;;;4.63;;
75626;SDS011;67372;49.404;11.034;2023-02-15T04:35:24;13.50;;;5.22;;
75626;SDS011;67372;49.404;11.034;2023-02-15T04:37:50;16.17;;;5.30;;
75626;SDS011;67372;49.404;11.034;2023-02-15T04:40:17;10.75;;;4.80;;
75626;SDS011;67372;49.404;11.034;2023-02-15T04:42:46;12.90;;;4.95;;
75626;SDS011;67372;49.404;11.034;2023-02-15T04:45:13;13.68;;;4.93;;
75626;SDS011;67372;49.404;11.034;2023-02-15T04:47:40;14.18;;;5.60;;
75626;SDS011;67372;49.404;11.034;2023-02-15T04:50:07;11.93;;;4.32;;
75626;SDS011;67372;49.404;11.034;2023-02-15T04:52:33;14.95;;;5.57;;
75626;SDS011;67372;49.404;11.034;2023-02-15T04:55:00;16.33;;;5.90;;
75626;SDS011;67372;49.404;11.034;2023-02-15T04:57:26;16.00;;;5.60;;
75626;SDS011;67372;49.404;11.034;2023-02-15T04:59:52;15.30;;;5.93;;
75626;SDS011;67372;49.404;11.034;2023-02-15T05:02:19;15.82;;;5.75;;
75626;SDS011;67372;49.404;11.034;2023-02-15T05:04:45;13.75;;;5.32;;
75626;SDS011;67372;49.404;11.034;2023-02-15T05:07:11;15.55;;;5.28;;
75626;SDS011;67372;49.404;11.034;2023-02-15T05:09:38;16.38;;;5.47;;
75626;SDS011;67372;49.404;11.034;2023-02-15T05:12:04;17.40;;;5.20;;
75626;SDS011;67372;49.404;11.034;2023-02-15T05:14:31;15.25;;;6.47;;
75626;SDS011;67372;49.404;11.034;2023-02-15T05:16:57;14.82;;;5.43;;
75626;SDS011;67372;49.404;11.034;2023-02-15T05:19:23;13.70;;;4.75;;
75626;SDS011;67372;49.404;11.034;2023-02-15T05:21:50;15.25;;;5.88;;
75626;SDS011;67372;49.404;11.034;2023-02-15T05:24:16;13.45;;;5.13;;
75626;SDS011;67372;49.404;11.034;2023-02-15T05:26:42;13.25;;;5.38;;
75626;SDS011;67372;49.404;11.034;2023-02-15T05:29:09;15.98;;;5.93;;
75626;SDS011;67372;49.404;11.034;2023-02-15T05:31:36;14.57;;;5.40;;
75626;SDS011;67372;49.404;11.034;2023-02-15T05:34:03;15.75;;;5.30;;
75626;SDS011;67372;49.404;11.034;2023-02-15T05:36:29;14.43;;;4.65;;
75626;SDS011;67372;49.404;11.034;2023-02-15T05:38:55;18.40;;;5.90;;
75626;SDS011;67372;49.404;11.034;2023-02-15T05:41:22;12.23;;;4.95;;
75626;SDS011;67372;49.404;11.034;2023-02-15T05:43:48;16.35;;;5.60;;
75626;SDS011;67372;49.404;11.034;2023-02-15T05:46:14;15.20;;;5.68;;
75626;SDS011;67372;49.404;11.034;2023-02-15T05:48:41;16.80;;;6.22;;
75626;SDS011;67372;49.404;11.034;2023-02-15T05:51:11;16.65;;;5.90;;
75626;SDS011;67372;49.404;11.034;2023-02-15T05:53:38;18.25;;;5.72;;
75626;SDS011;67372;49.404;11.034;2023-02-15T05:56:06;15.57;;;5.18;;
75626;SDS011;67372;49.404;11.034;2023-02-15T05:58:36;17.35;;;6.32;;
75626;SDS011;67372;49.404;11.034;2023-02-15T06:01:11;13.35;;;4.85;;
75626;SDS011;67372;49.404;11.034;2023-02-15T06:03:39;17.73;;;6.18;;
75626;SDS011;67372;49.404;11.034;2023-02-15T06:06:06;16.35;;;5.45;;
75626;SDS011;67372;49.404;11.034;2023-02-15T06:08:33;18.73;;;6.20;;
75626;SDS011;67372;49.404;11.034;2023-02-15T06:11:01;17.30;;;5.68;;
75626;SDS011;67372;49.404;11.034;2023-02-15T06:13:27;15.82;;;6.13;;
75626;SDS011;67372;49.404;11.034;2023-02-15T06:15:54;16.00;;;5.07;;
75626;SDS011;67372;49.404;11.034;2023-02-15T06:18:20;17.75;;;5.63;;
75626;SDS011;67372;49.404;11.034;2023-02-15T06:20:47;14.13;;;4.75;;
75626;SDS011;67372;49.404;11.034;2023-02-15T06:23:14;15.20;;;5.38;;
75626;SDS011;67372;49.404;11.034;2023-02-15T06:25:41;15.05;;;5.07;;
75626;SDS011;67372;49.404;11.034;2023-02-15T06:28:07;14.30;;;5.10;;
75626;SDS011;67372;49.404;11.034;2023-02-15T06:30:33;15.02;;;5.63;;
75626;SDS011;67372;49.404;11.034;2023-02-15T06:33:00;12.38;;;5.20;;
75626;SDS011;67372;49.404;11.034;2023-02-15T06:35:26;16.50;;;5.40;;
75626;SDS011;67372;49.404;11.034;2023-02-15T06:37:53;14.52;;;5.03;;
75626;SDS011;67372;49.404;11.034;2023-02-15T06:40:19;17.63;;;5.93;;
75626;SDS011;67372;49.404;11.034;2023-02-15T06:42:46;16.48;;;6.35;;
75626;SDS011;67372;49.404;11.034;2023-02-15T06:45:12;17.63;;;5.65;;
75626;SDS011;67372;49.404;11.034;2023-02-15T06:47:39;15.48;;;5.70;;
75626;SDS011;67372;49.404;11.034;2023-02-15T06:50:05;16.92;;;5.60;;
75626;SDS011;67372;49.404;11.034;2023-02-15T06:52:33;12.65;;;5.18;;
75626;SDS011;67372;49.404;11.034;2023-02-15T06:54:59;16.02;;;5.55;;
75626;SDS011;67372;49.404;11.034;2023-02-15T06:57:26;30.83;;;11.32;;
75626;SDS011;67372;49.404;11.034;2023-02-15T06:59:52;38.00;;;20.45;;
75626;SDS011;67372;49.404;11.034;2023-02-15T07:02:18;21.70;;;8.45;;
75626;SDS011;67372;49.404;11.034;2023-02-15T07:04:45;17.35;;;7.82;;
75626;SDS011;67372;49.404;11.034;2023-02-15T07:07:11;21.23;;;8.15;;
75626;SDS011;67372;49.404;11.034;2023-02-15T07:09:39;17.33;;;6.22;;
75626;SDS011;67372;49.404;11.034;2023-02-15T07:12:05;20.40;;;7.55;;
75626;SDS011;67372;49.404;11.034;2023-02-15T07:14:32;17.50;;;5.70;;
75626;SDS011;67372;49.404;11.034;2023-02-15T07:16:58;18.02;;;6.97;;
75626;SDS011;67372;49.404;11.034;2023-02-15T07:19:25;13.98;;;5.35;;
75626;SDS011;67372;49.404;11.034;2023-02-15T07:21:51;14.70;;;5.53;;
75626;SDS011;67372;49.404;11.034;2023-02-15T07:24:18;14.57;;;6.05;;
75626;SDS011;67372;49.404;11.034;2023-02-15T07:26:44;16.38;;;5.75;;
75626;SDS011;67372;49.404;11.034;2023-02-15T07:29:10;16.65;;;5.78;;
75626;SDS011;67372;49.404;11.034;2023-02-15T07:31:37;16.80;;;5.68;;
75626;SDS011;67372;49.404;11.034;2023-02-15T07:34:05;17.10;;;5.57;;
75626;SDS011;67372;49.404;11.034;2023-02-15T07:36:32;16.65;;;5.55;;
75626;SDS011;67372;49.404;11.034;2023-02-15T07:38:58;12.68;;;5.40;;
75626;SDS011;67372;49.404;11.034;2023-02-15T07:41:24;12.23;;;4.72;;
75626;SDS011;67372;49.404;11.034;2023-02-15T07:43:50;22.10;;;5.53;;
75626;SDS011;67372;49.404;11.034;2023-02-15T07:46:17;26.83;;;5.60;;
75626;SDS011;67372;49.404;11.034;2023-02-15T07:48:44;29.08;;;6.13;;
75626;SDS011;67372;49.404;11.034;2023-02-15T07:51:11;17.23;;;4.63;;
75626;SDS011;67372;49.404;11.034;2023-02-15T07:53:38;15.90;;;7.05;;
75626;SDS011;67372;49.404;11.034;2023-02-15T07:56:06;18.60;;;6.70;;
75626;SDS011;67372;49.404;11.034;2023-02-15T07:58:35;15.75;;;4.65;;
75626;SDS011;67372;49.404;11.034;2023-02-15T08:01:02;29.13;;;7.25;;
75626;SDS011;67372;49.404;11.034;2023-02-15T08:03:28;16.27;;;5.35;;
75626;SDS011;67372;49.404;11.034;2023-02-15T08:05:58;13.68;;;4.63;;
75626;SDS011;67372;49.404;11.034;2023-02-15T08:08:26;13.23;;;5.53;;
75626;SDS011;67372;49.404;11.034;2023-02-15T08:10:53;14.02;;;5.15;;
75626;SDS011;67372;49.404;11.034;2023-02-15T08:13:19;10.95;;;4.53;;
75626;SDS011;67372;49.404;11.034;2023-02-15T08:15:49;13.85;;;5.15;;
75626;SDS011;67372;49.404;11.034;2023-02-15T08:18:16;12.07;;;4.78;;
75626;SDS011;67372;49.404;11.034;2023-02-15T08:20:42;16.65;;;6.32;;
75626;SDS011;67372;49.404;11.034;2023-02-15T08:23:15;15.43;;;6.72;;
75626;SDS011;67372;49.404;11.034;2023-02-15T08:25:41;16.08;;;5.88;;
75626;SDS011;67372;49.404;11.034;2023-02-15T08:28:07;16.25;;;5.97;;
75626;SDS011;67372;49.404;11.034;2023-02-15T08:30:34;16.50;;;6.72;;
75626;SDS011;67372;49.404;11.034;2023-02-15T08:33:02;15.05;;;5.70;;
75626;SDS011;67372;49.404;11.034;2023-02-15T08:35:28;18.23;;;6.93;;
75626;SDS011;67372;49.404;11.034;2023-02-15T08:37:54;17.05;;;6.80;;
75626;SDS011;67372;49.404;11.034;2023-02-15T08:40:21;14.60;;;6.00;;
75626;SDS011;67372;49.404;11.034;2023-02-15T08:42:47;16.20;;;6.15;;
75626;SDS011;67372;49.404;11.034;2023-02-15T08:45:13;20.58;;;6.57;;
75626;SDS011;67372;49.404;11.034;2023-02-15T08:47:40;15.05;;;7.07;;
75626;SDS011;67372;49.404;11.034;2023-02-15T08:50:06;15.07;;;5.90;;
75626;SDS011;67372;49.404;11.034;2023-02-15T08:52:33;18.88;;;6.53;;
75626;SDS011;67372;49.404;11.034;2023-02-15T08:54:59;20.10;;;7.15;;
75626;SDS011;67372;49.404;11.034;2023-02-15T08:57:25;32.72;;;16.60;;
75626;SDS011;67372;49.404;11.034;2023-02-15T08:59:53;16.05;;;5.60;;
75626;SDS011;67372;49.404;11.034;2023-02-15T09:02:19;14.57;;;5.22;;
75626;SDS011;67372;49.404;11.034;2023-02-15T09:04:45;19.10;;;5.95;;
75626;SDS011;67372;49.404;11.034;2023-02-15T09:07:12;15.80;;;6.05;;
75626;SDS011;67372;49.404;11.034;2023-02-15T09:09:38;14.93;;;6.47;;
75626;SDS011;67372;49.404;11.034;2023-02-15T09:12:04;15.52;;;6.18;;
75626;SDS011;67372;49.404;11.034;2023-02-15T09:14:31;20.60;;;7.22;;
75626;SDS011;67372;49.404;11.034;2023-02-15T09:16:58;17.20;;;6.00;;
75626;SDS011;67372;49.404;11.034;2023-02-15T09:19:25;17.13;;;6.13;;
75626;SDS011;67372;49.404;11.034;2023-02-15T09:21:51;19.63;;;7.15;;
75626;SDS011;67372;49.404;11.034;2023-02-15T09:24:18;15.05;;;5.75;;
75626;SDS011;67372;49.404;11.034;2023-02-15T09:26:45;14.98;;;6.18;;
75626;SDS011;67372;49.404;11.034;2023-02-15T09:29:13;18.48;;;5.88;;
75626;SDS011;67372;49.404;11.034;2023-02-15T09:31:41;10.85;;;5.00;;
75626;SDS011;67372;49.404;11.034;2023-02-15T09:34:16;15.70;;;5.90;;
75626;SDS011;67372;49.404;11.034;2023-02-15T09:36:44;14.35;;;5.93;;
75626;SDS011;67372;49.404;11.034;2023-02-15T10:04:01;14.98;;;6.03;;
75626;SDS011;67372;49.404;11.034;2023-02-15T10:11:55;16.52;;;6.13;;
75626;SDS011;67372;49.404;11.034;2023-02-15T10:19:50;17.27;;;6.82;;
75626;SDS011;67372;49.404;11.034;2023-02-15T10:22:48;28.92;;;14.48;;
75626;SDS011;67372;49.404;11.034;2023-02-15T10:28:23;14.30;;;6.28;;
75626;SDS011;67372;49.404;11.034;2023-02-15T10:33:42;14.70;;;5.25;;
75626;SDS011;67372;49.404;11.034;2023-02-15T10:36:19;17.17;;;6.57;;
75626;SDS011;67372;49.404;11.034;2023-02-15T10:38:56;15.70;;;5.63;;
75626;SDS011;67372;49.404;11.034;2023-02-15T10:44:15;15.18;;;5.85;;
75626;SDS011;67372;49.404;11.034;2023-02-15T10:52:54;17.48;;;6.43;;
75626;SDS011;67372;49.404;11.034;2023-02-15T11:00:57;15.52;;;6.18;;
75626;SDS011;67372;49.404;11.034;2023-02-15T11:06:15;15.63;;;6.43;;
75626;SDS011;67372;49.404;11.034;2023-02-15T11:08:46;18.05;;;7.47;;
75626;SDS011;67372;49.404;11.034;2023-02-15T11:13:53;22.00;;;7.38;;
75626;SDS011;67372;49.404;11.034;2023-02-15T11:16:28;16.55;;;6.53;;
75626;SDS011;67372;49.404;11.034;2023-02-15T11:18:59;17.02;;;7.30;;
75626;SDS011;67372;49.404;11.034;2023-02-15T11:21:34;15.75;;;6.78;;
75626;SDS011;67372;49.404;11.034;2023-02-15T11:24:11;17.38;;;6.78;;
75626;SDS011;67372;49.404;11.034;2023-02-15T11:26:43;14.88;;;6.50;;
75626;SDS011;67372;49.404;11.034;2023-02-15T11:29:18;17.50;;;7.10;;
75626;SDS011;67372;49.404;11.034;2023-02-15T11:31:56;19.92;;;7.20;;
75626;SDS011;67372;49.404;11.034;2023-02-15T11:34:31;16.42;;;6.97;;
75626;SDS011;67372;49.404;11.034;2023-02-15T11:37:01;21.33;;;8.10;;
75626;SDS011;67372;49.404;11.034;2023-02-15T11:39:33;19.55;;;8.07;;
75626;SDS011;67372;49.404;11.034;2023-02-15T11:42:08;17.08;;;7.35;;
75626;SDS011;67372;49.404;11.034;2023-02-15T11:44:47;19.48;;;8.43;;
75626;SDS011;67372;49.404;11.034;2023-02-15T11:47:22;23.45;;;9.02;;
75626;SDS011;67372;49.404;11.034;2023-02-15T11:49:48;20.77;;;8.10;;
75626;SDS011;67372;49.404;11.034;2023-02-15T11:52:15;19.33;;;9.07;;
75626;SDS011;67372;49.404;11.034;2023-02-15T11:54:44;21.08;;;9.52;;
75626;SDS011;67372;49.404;11.034;2023-02-15T11:59:50;20.27;;;8.00;;
75626;SDS011;67372;49.404;11.034;2023-02-15T12:02:22;21.75;;;8.77;;
75626;SDS011;67372;49.404;11.034;2023-02-15T12:05:09;19.30;;;8.85;;
75626;SDS011;67372;49.404;11.034;2023-02-15T12:07:42;21.67;;;8.43;;
75626;SDS011;67372;49.404;11.034;2023-02-15T12:10:16;21.83;;;9.57;;
75626;SDS011;67372;49.404;11.034;2023-02-15T12:12:46;20.23;;;8.30;;
75626;SDS011;67372;49.404;11.034;2023-02-15T12:15:12;19.38;;;8.68;;
75626;SDS011;67372;49.404;11.034;2023-02-15T12:17:40;20.40;;;8.88;;
75626;SDS011;67372;49.404;11.034;2023-02-15T12:22:51;24.15;;;9.35;;
75626;SDS011;67372;49.404;11.034;2023-02-15T12:25:21;22.10;;;9.13;;
75626;SDS011;67372;49.404;11.034;2023-02-15T12:27:50;25.30;;;9.82;;
75626;SDS011;67372;49.404;11.034;2023-02-15T12:35:31;22.10;;;9.32;;
75626;SDS011;67372;49.404;11.034;2023-02-15T12:38:02;21.23;;;8.45;;
75626;SDS011;67372;49.404;11.034;2023-02-15T12:40:31;21.23;;;8.75;;
75626;SDS011;67372;49.404;11.034;2023-02-15T12:42:59;19.77;;;8.63;;
75626;SDS011;67372;49.404;11.034;2023-02-15T12:45:29;18.88;;;8.27;;
75626;SDS011;67372;49.404;11.034;2023-02-15T12:50:39;22.27;;;9.25;;
75626;SDS011;67372;49.404;11.034;2023-02-15T12:53:17;21.02;;;8.82;;
75626;SDS011;67372;49.404;11.034;2023-02-15T12:55:56;21.08;;;9.23;;
75626;SDS011;67372;49.404;11.034;2023-02-15T12:58:28;18.45;;;7.88;;
75626;SDS011;67372;49.404;11.034;2023-02-15T13:04:01;23.73;;;9.20;;
75626;SDS011;67372;49.404;11.034;2023-02-15T13:06:31;19.73;;;8.13;;
75626;SDS011;67372;49.404;11.034;2023-02-15T13:09:35;19.90;;;7.85;;
75626;SDS011;67372;49.404;11.034;2023-02-15T13:12:22;25.30;;;8.63;;
75626;SDS011;67372;49.404;11.034;2023-02-15T13:14:51;25.15;;;9.07;;
75626;SDS011;67372;49.404;11.034;2023-02-15T13:17:21;20.85;;;8.90;;
75626;SDS011;67372;49.404;11.034;2023-02-15T13:19:52;24.48;;;9.10;;
75626;SDS011;67372;49.404;11.034;2023-02-15T13:22:20;22.50;;;9.77;;
75626;SDS011;67372;49.404;11.034;2023-02-15T13:24:51;23.27;;;10.52;;
75626;SDS011;67372;49.404;11.034;2023-02-15T13:27:22;21.35;;;8.85;;
75626;SDS011;67372;49.404;11.034;2023-02-15T13:29:53;21.83;;;8.68;;
75626;SDS011;67372;49.404;11.034;2023-02-15T13:35:04;23.38;;;10.30;;
75626;SDS011;67372;49.404;11.034;2023-02-15T13:40:25;22.63;;;9.45;;
75626;SDS011;67372;49.404;11.034;2023-02-15T13:42:59;26.33;;;9.80;;
75626;SDS011;67372;49.404;11.034;2023-02-15T13:51:35;22.95;;;9.48;;
75626;SDS011;67372;49.404;11.034;2023-02-15T14:00:28;24.17;;;10.63;;
75626;SDS011;67372;49.404;11.034;2023-02-15T14:08:54;23.52;;;9.52;;
75626;SDS011;67372;49.404;11.034;2023-02-15T14:11:29;26.48;;;9.73;;
75626;SDS011;67372;49.404;11.034;2023-02-15T14:14:17;27.45;;;10.73;;
75626;SDS011;67372;49.404;11.034;2023-02-15T14:17:08;21.40;;;9.00;;
75626;SDS011;67372;49.404;11.034;2023-02-15T14:19:57;25.42;;;9.88;;
75626;SDS011;67372;49.404;11.034;2023-02-15T14:22:40;26.30;;;9.85;;
75626;SDS011;67372;49.404;11.034;2023-02-15T14:30:36;18.10;;;8.98;;
75626;SDS011;67372;49.404;11.034;2023-02-15T14:33:10;23.10;;;9.18;;
75626;SDS011;67372;49.404;11.034;2023-02-15T14:35:47;20.60;;;8.93;;
75626;SDS011;67372;49.404;11.034;2023-02-15T14:38:31;23.73;;;9.70;;
75626;SDS011;67372;49.404;11.034;2023-02-15T14:41:12;21.33;;;9.50;;
75626;SDS011;67372;49.404;11.034;2023-02-15T14:48:53;22.60;;;9.68;;
75626;SDS011;67372;49.404;11.034;2023-02-15T14:54:09;20.25;;;8.52;;
75626;SDS011;67372;49.404;11.034;2023-02-15T15:04:43;24.17;;;10.13;;
75626;SDS011;67372;49.404;11.034;2023-02-15T15:07:21;25.75;;;10.10;;
75626;SDS011;67372;49.404;11.034;2023-02-15T15:12:40;26.58;;;10.80;;
75626;SDS011;67372;49.404;11.034;2023-02-15T15:15:07;22.25;;;9.48;;
75626;SDS011;67372;49.404;11.034;2023-02-15T15:20:11;22.98;;;10.45;;
75626;SDS011;67372;49.404;11.034;2023-02-15T15:30:46;27.63;;;10.68;;
75626;SDS011;67372;49.404;11.034;2023-02-15T15:44:27;21.95;;;9.32;;
75626;SDS011;67372;49.404;11.034;2023-02-15T15:47:16;24.60;;;10.02;;
75626;SDS011;67372;49.404;11.034;2023-02-15T15:49:55;23.88;;;9.90;;
75626;SDS011;67372;49.404;11.034;2023-02-15T15:52:23;22.45;;;9.57;;
75626;SDS011;67372;49.404;11.034;2023-02-15T15:54:51;21.30;;;9.15;;
75626;SDS011;67372;49.404;11.034;2023-02-15T15:57:32;22.38;;;10.07;;
75626;SDS011;67372;49.404;11.034;2023-02-15T16:00:01;29.58;;;11.32;;
75626;SDS011;67372;49.404;11.034;2023-02-15T16:04:57;22.35;;;10.07;;
75626;SDS011;67372;49.404;11.034;2023-02-15T16:07:32;22.50;;;9.18;;
75626;SDS011;67372;49.404;11.034;2023-02-15T16:10:07;24.10;;;10.10;;
75626;SDS011;67372;49.404;11.034;2023-02-15T16:12:45;27.27;;;10.57;;
75626;SDS011;67372;49.404;11.034;2023-02-15T16:15:14;26.42;;;10.57;;
75626;SDS011;67372;49.404;11.034;2023-02-15T16:17:43;24.48;;;10.10;;
75626;SDS011;67372;49.404;11.034;2023-02-15T16:20:20;25.88;;;10.38;;
75626;SDS011;67372;49.404;11.034;2023-02-15T16:22:51;23.75;;;9.23;;
75626;SDS011;67372;49.404;11.034;2023-02-15T16:28:16;26.65;;;9.85;;
75626;SDS011;67372;49.404;11.034;2023-02-15T16:30:42;29.70;;;10.50;;
75626;SDS011;67372;49.404;11.034;2023-02-15T16:33:15;25.40;;;9.55;;
75626;SDS011;67372;49.404;11.034;2023-02-15T16:35:53;28.90;;;10.23;;
75626;SDS011;67372;49.404;11.034;2023-02-15T16:41:13;24.25;;;9.55;;
75626;SDS011;67372;49.404;11.034;2023-02-15T16:43:44;25.35;;;9.60;;
75626;SDS011;67372;49.404;11.034;2023-02-15T16:46:15;24.98;;;9.75;;
75626;SDS011;67372;49.404;11.034;2023-02-15T16:48:48;26.05;;;8.95;;
75626;SDS011;67372;49.404;11.034;2023-02-15T16:51:21;30.90;;;11.60;;
75626;SDS011;67372;49.404;11.034;2023-02-15T16:53:54;29.42;;;11.77;;
75626;SDS011;67372;49.404;11.034;2023-02-15T16:56:25;29.33;;;10.55;;
75626;SDS011;67372;49.404;11.034;2023-02-15T16:58:54;36.30;;;13.07;;
75626;SDS011;67372;49.404;11.034;2023-02-15T17:01:22;27.15;;;10.23;;
75626;SDS011;67372;49.404;11.034;2023-02-15T17:03:52;25.85;;;9.98;;
75626;SDS011;67372;49.404;11.034;2023-02-15T17:06:57;32.03;;;11.20;;
75626;SDS011;67372;49.404;11.034;2023-02-15T17:09:26;26.45;;;10.40;;
75626;SDS011;67372;49.404;11.034;2023-02-15T17:11:52;28.83;;;9.95;;
75626;SDS011;67372;49.404;11.034;2023-02-15T17:14:19;25.90;;;8.82;;
75626;SDS011;67372;49.404;11.034;2023-02-15T17:16:49;29.20;;;10.90;;
75626;SDS011;67372;49.404;11.034;2023-02-15T17:19:26;28.55;;;11.00;;
75626;SDS011;67372;49.404;11.034;2023-02-15T17:21:59;32.10;;;10.45;;
75626;SDS011;67372;49.404;11.034;2023-02-15T17:24:31;27.60;;;10.38;;
75626;SDS011;67372;49.404;11.034;2023-02-15T17:27:00;34.10;;;13.20;;
75626;SDS011;67372;49.404;11.034;2023-02-15T17:29:33;32.60;;;13.13;;
75626;SDS011;67372;49.404;11.034;2023-02-15T17:32:03;36.63;;;13.32;;
75626;SDS011;67372;49.404;11.034;2023-02-15T17:37:49;39.05;;;14.15;;